Date,TemperatureHighF,TemperatureAvgF,TemperatureLowF,DewpointHighF,DewpointAvgF,DewpointLowF,HumidityHigh,HumidityAvg,HumidityLow,PressureMaxIn,PressureMinIn,WindSpeedMaxMPH,WindSpeedAvgMPH,GustSpeedMaxMPH,PrecipitationSumIn
2013-10-1,89.3,78.9,69.2,74.0,71.6,68.0,98,80,54,29.92,29.82,8,3,11,0.00
2013-10-2,86.1,78.5,72.8,75.0,72.7,71.0,96,83,63,29.97,29.85,9,4,13,0.00
2013-10-3,90.3,80.5,73.6,76.0,73.4,71.0,96,80,58,29.93,29.80,10,3,15,0.00
2013-10-4,89.4,80.5,73.5,74.0,72.1,70.0,94,77,56,29.90,29.82,9,3,13,0.00
2013-10-5,83.4,68.7,56.1,74.0,62.1,47.0,96,80,64,30.08,29.85,9,2,20,0.00
2013-10-6,76.1,60.5,47.2,53.0,44.8,36.0,96,63,25,30.13,30.03,6,1,12,0.00
2013-10-7,82.8,61.2,42.7,50.0,42.4,37.0,94,58,20,30.16,30.05,3,0,8,0.00
2013-10-8,80.6,63.5,45.4,55.0,49.6,44.0,96,65,34,30.12,30.00,7,1,8,0.00
2013-10-9,81.8,69.6,58.1,62.0,57.2,54.0,86,67,43,30.08,29.97,8,2,13,0.00
2013-10-10,83.5,71.9,59.9,66.0,61.6,57.0,92,71,51,30.06,29.89,9,2,13,0.00
2013-10-11,85.7,75.6,66.4,74.0,69.4,65.0,95,81,67,29.96,29.82,7,3,12,0.03
2013-10-12,86.4,74.6,67.6,78.0,71.6,66.0,96,90,74,30.06,29.87,7,2,10,0.13
2013-10-13,75.3,71.2,67.2,71.0,68.8,66.0,97,92,85,30.18,30.03,8,2,11,0.00
2013-10-14,74.7,71.8,69.6,74.0,71.0,68.0,99,97,94,30.12,29.92,7,3,10,0.48
2013-10-15,73.3,68.6,55.4,72.0,67.8,55.0,99,97,95,30.01,29.89,7,2,13,1.70
2013-10-16,59.1,55.7,53.5,56.0,54.8,53.0,99,96,89,30.08,29.99,6,2,11,0.79
2013-10-17,70.9,57.8,46.6,56.0,51.1,46.0,98,81,49,30.15,30.00,4,1,7,0.01
2013-10-18,71.1,60.3,50.1,59.0,54.3,49.0,98,82,56,30.04,29.91,9,2,13,0.00
2013-10-19,65.2,53.5,42.4,57.0,44.4,41.0,95,74,43,30.21,30.04,8,2,14,0.00
2013-10-20,71.2,56.1,39.0,51.0,45.7,38.0,98,72,43,30.10,29.92,6,2,13,0.00
2013-10-21,78.8,62.8,55.1,67.0,57.6,49.0,96,83,68,30.08,29.93,8,2,12,0.00
2013-10-22,75.9,58.6,44.7,54.0,47.2,43.0,95,70,32,30.18,30.04,7,1,9,0.00
2013-10-23,83.6,64.2,46.4,56.0,50.4,44.0,94,65,36,30.15,30.05,4,1,7,0.00
2013-10-24,83.1,66.9,52.4,56.0,51.7,47.0,88,62,32,30.25,30.08,3,0,8,0.00
2013-10-25,69.7,59.3,51.5,55.0,51.3,48.0,94,76,56,30.40,30.25,8,3,14,0.00
2013-10-26,77.8,65.2,55.8,66.0,57.7,50.0,95,77,66,30.25,30.03,10,3,14,0.37
2013-10-27,67.6,62.3,58.9,63.0,60.3,58.0,99,93,78,30.13,30.02,8,1,11,0.09
2013-10-28,79.6,68.4,58.6,71.0,64.8,58.0,99,89,72,30.11,30.00,11,3,12,0.00
2013-10-29,78.2,72.4,67.7,72.0,69.4,67.0,97,90,81,30.09,29.99,7,3,13,0.00
2013-10-30,71.4,68.1,65.4,70.0,67.3,65.0,99,97,90,30.03,29.81,14,6,19,1.57
2013-10-31,77.5,67.2,50.4,70.0,58.2,45.0,100,78,33,29.88,29.68,8,2,17,0.05